createdAt,value
2023-01-19T00:00:02.335Z,49.6008360377792
2023-01-19T00:15:01.992Z,49.00360221352182
2023-01-19T00:30:01.685Z,49.1612779069908
2023-01-19T00:45:02.334Z,49.196499650855436
2023-01-19T01:00:02.019Z,49.0995705443828
2023-01-19T01:15:01.702Z,49.01360515011376
2023-01-19T01:30:01.393Z,49.17633505953256
2023-01-19T01:45:02.167Z,49.35461410833614
2023-01-19T02:00:01.823Z,49.42944642984097
2023-01-19T02:15:01.508Z,49.154844575571154
2023-01-19T02:30:02.472Z,51.81636499971641
2023-01-19T02:45:02.177Z,52.04744922072386
2023-01-19T03:00:01.844Z,52.215056806076475
2023-01-19T03:15:02.508Z,52.298302797910935
2023-01-19T03:30:02.193Z,52.42651038165127
2023-01-19T03:45:01.846Z,52.82704959048051
2023-01-19T04:00:02.467Z,52.671257375155335
2023-01-19T04:15:02.133Z,52.691130908973356
2023-01-19T04:30:01.800Z,52.64409768121256
2023-01-19T04:45:02.444Z,52.46039362988267
2023-01-19T05:00:02.100Z,52.67642404345584
2023-01-19T05:15:01.847Z,52.54021574561997
2023-01-19T05:30:01.871Z,52.36183521858893
2023-01-19T05:45:01.521Z,52.27447331985342
2023-01-19T06:00:02.192Z,52.617834525261536
2023-01-19T06:15:01.814Z,52.39781722930521
2023-01-19T06:30:01.568Z,52.79433443835874
2023-01-19T06:45:02.209Z,52.727096034803196
2023-01-19T07:00:02.054Z,53.303234866778055
2023-01-19T07:15:01.728Z,53.54162511538149
2023-01-19T07:30:01.381Z,53.928279387590436
2023-01-19T07:45:02.032Z,53.270606270615204
2023-01-19T08:00:01.721Z,51.43013930468741
2023-01-19T08:15:01.406Z,51.030043389634756
2023-01-19T08:30:02.073Z,50.54348724703361
2023-01-19T08:45:01.759Z,49.47336662468191
2023-01-19T09:00:01.417Z,49.51138257101304
2023-01-19T09:15:02.211Z,51.3243824060699
2023-01-19T09:30:01.990Z,52.619952268300686
2023-01-19T09:45:01.713Z,51.303127197480535
2023-01-19T10:00:01.369Z,50.64887153492181
2023-01-19T10:15:02.096Z,50.64430967055201
2023-01-19T10:30:02.071Z,50.55438040040363
2023-01-19T10:45:01.735Z,50.00626871747261
2023-01-19T11:00:02.480Z,49.32240390638304
2023-01-19T11:15:02.126Z,48.098621050368514
2023-01-19T11:30:01.804Z,44.06460805863911
2023-01-19T11:45:02.435Z,47.681852988604554
2023-01-19T12:00:02.097Z,42.22720077149959
2023-01-19T12:15:01.733Z,37.78043671996014
2023-01-19T12:30:02.447Z,37.72619124932343
2023-01-19T12:45:02.127Z,37.995064837981346
2023-01-19T13:00:01.784Z,41.54348456231759
2023-01-19T13:15:01.649Z,41.32160388918488
2023-01-19T13:30:02.039Z,46.64009361103299
2023-01-19T13:45:01.886Z,44.81012775408668
2023-01-19T14:00:01.603Z,40.658724711749066
2023-01-19T14:15:02.263Z,42.967134756480256
2023-01-19T14:30:01.953Z,47.49287941094687
2023-01-19T14:45:01.619Z,47.240081817697586
2023-01-19T15:00:02.249Z,46.863314678419115
2023-01-19T15:15:01.927Z,47.26498237513851
2023-01-19T15:30:01.621Z,49.90352448133856
2023-01-19T15:45:02.242Z,51.145858873723895
2023-01-19T16:00:01.864Z,52.03964063041626
2023-01-19T16:15:01.619Z,52.03353106766437
2023-01-19T16:30:01.272Z,51.653840605686455
2023-01-19T16:45:01.952Z,52.1721445763462
2023-01-19T17:00:01.665Z,52.230527872356916
2023-01-19T17:15:01.378Z,52.03798578675713
2023-01-19T17:30:02.077Z,52.16572941601422
2023-01-19T17:45:01.717Z,51.75930961159831
2023-01-19T18:00:01.369Z,51.88667028485313
2023-01-19T18:15:02.030Z,51.80128741523407
2023-01-19T18:30:02.005Z,52.11429299232678
2023-01-19T18:45:01.671Z,52.18886982687378
2023-01-19T19:00:02.406Z,52.07888842804093
2023-01-19T19:15:02.050Z,52.11806640558805
2023-01-19T19:30:01.707Z,51.645458034528126
2023-01-19T19:45:02.459Z,51.48529435937052
2023-01-19T20:00:02.104Z,51.732463015691366
2023-01-19T20:15:01.765Z,52.13430792333853
2023-01-19T20:30:01.450Z,51.81277401614843
2023-01-19T20:45:02.096Z,52.25804261221029
2023-01-19T21:00:01.762Z,52.31697921570773
2023-01-19T21:15:01.515Z,51.94498403364448
2023-01-19T21:30:02.200Z,51.32657963787788
2023-01-19T21:45:01.872Z,51.0305894665248
2023-01-19T22:00:01.533Z,50.83767778685553
2023-01-19T22:15:02.235Z,51.05244306229382
2023-01-19T22:30:01.903Z,51.13924317270787
2023-01-19T22:45:01.559Z,51.35758112086729
2023-01-19T23:00:02.262Z,51.02569176202608
2023-01-19T23:15:01.893Z,51.46086235304603
2023-01-19T23:30:01.674Z,51.31780675532055
2023-01-19T23:45:01.371Z,51.07913316812532
